sensor_id;sensor_type;location;lat;lon;timestamp;P1;durP1;ratioP1;P2;durP2;ratioP2
4577;SDS011;2301;47.354;8.528;2023-03-03T00:01:10;35.25;;;20.52;;
4577;SDS011;2301;47.354;8.528;2023-03-03T00:03:39;36.47;;;19.50;;
4577;SDS011;2301;47.354;8.528;2023-03-03T00:06:07;44.35;;;20.30;;
4577;SDS011;2301;47.354;8.528;2023-03-03T00:08:36;33.67;;;19.83;;
4577;SDS011;2301;47.354;8.528;2023-03-03T00:11:03;36.67;;;20.10;;
4577;SDS011;2301;47.354;8.528;2023-03-03T00:13:32;35.13;;;20.08;;
4577;SDS011;2301;47.354;8.528;2023-03-03T00:16:13;33.38;;;19.45;;
4577;SDS011;2301;47.354;8.528;2023-03-03T00:18:51;33.95;;;20.85;;
4577;SDS011;2301;47.354;8.528;2023-03-03T00:21:22;37.35;;;21.98;;
4577;SDS011;2301;47.354;8.528;2023-03-03T00:23:53;36.65;;;20.27;;
4577;SDS011;2301;47.354;8.528;2023-03-03T00:26:21;33.78;;;20.17;;
4577;SDS011;2301;47.354;8.528;2023-03-03T00:28:52;41.05;;;21.00;;
4577;SDS011;2301;47.354;8.528;2023-03-03T00:31:25;36.13;;;20.20;;
4577;SDS011;2301;47.354;8.528;2023-03-03T00:33:57;35.03;;;20.15;;
4577;SDS011;2301;47.354;8.528;2023-03-03T00:36:37;34.38;;;19.27;;
4577;SDS011;2301;47.354;8.528;2023-03-03T00:39:17;35.53;;;21.20;;
4577;SDS011;2301;47.354;8.528;2023-03-03T00:41:49;32.20;;;19.40;;
4577;SDS011;2301;47.354;8.528;2023-03-03T00:44:26;27.95;;;18.05;;
4577;SDS011;2301;47.354;8.528;2023-03-03T00:49:58;33.60;;;20.58;;
4577;SDS011;2301;47.354;8.528;2023-03-03T00:52:52;42.30;;;20.65;;
4577;SDS011;2301;47.354;8.528;2023-03-03T00:55:24;36.45;;;20.73;;
4577;SDS011;2301;47.354;8.528;2023-03-03T00:57:51;34.28;;;20.58;;
4577;SDS011;2301;47.354;8.528;2023-03-03T01:00:18;33.72;;;19.80;;
4577;SDS011;2301;47.354;8.528;2023-03-03T01:02:45;32.97;;;18.80;;
4577;SDS011;2301;47.354;8.528;2023-03-03T01:05:15;32.28;;;18.50;;
4577;SDS011;2301;47.354;8.528;2023-03-03T01:07:42;31.98;;;18.67;;
4577;SDS011;2301;47.354;8.528;2023-03-03T01:10:09;30.00;;;18.60;;
4577;SDS011;2301;47.354;8.528;2023-03-03T01:12:37;33.25;;;20.05;;
4577;SDS011;2301;47.354;8.528;2023-03-03T01:15:04;35.72;;;19.65;;
4577;SDS011;2301;47.354;8.528;2023-03-03T01:17:32;32.63;;;19.33;;
4577;SDS011;2301;47.354;8.528;2023-03-03T01:19:59;29.40;;;19.40;;
4577;SDS011;2301;47.354;8.528;2023-03-03T01:22:27;34.72;;;19.80;;
4577;SDS011;2301;47.354;8.528;2023-03-03T01:24:54;32.50;;;19.38;;
4577;SDS011;2301;47.354;8.528;2023-03-03T01:27:21;31.77;;;19.08;;
4577;SDS011;2301;47.354;8.528;2023-03-03T01:29:48;33.58;;;20.35;;
4577;SDS011;2301;47.354;8.528;2023-03-03T01:32:15;28.15;;;17.50;;
4577;SDS011;2301;47.354;8.528;2023-03-03T01:34:42;33.25;;;18.60;;
4577;SDS011;2301;47.354;8.528;2023-03-03T01:37:09;31.48;;;18.33;;
4577;SDS011;2301;47.354;8.528;2023-03-03T01:39:37;33.67;;;19.33;;
4577;SDS011;2301;47.354;8.528;2023-03-03T01:42:04;32.58;;;17.50;;
4577;SDS011;2301;47.354;8.528;2023-03-03T01:44:32;29.45;;;18.38;;
4577;SDS011;2301;47.354;8.528;2023-03-03T01:46:59;31.42;;;18.90;;
4577;SDS011;2301;47.354;8.528;2023-03-03T01:49:32;32.70;;;18.38;;
4577;SDS011;2301;47.354;8.528;2023-03-03T01:52:02;33.42;;;19.23;;
4577;SDS011;2301;47.354;8.528;2023-03-03T01:54:37;40.83;;;20.45;;
4577;SDS011;2301;47.354;8.528;2023-03-03T01:57:09;33.55;;;18.95;;
4577;SDS011;2301;47.354;8.528;2023-03-03T01:59:39;30.67;;;17.92;;
4577;SDS011;2301;47.354;8.528;2023-03-03T02:02:09;32.28;;;16.48;;
4577;SDS011;2301;47.354;8.528;2023-03-03T02:04:36;33.90;;;18.90;;
4577;SDS011;2301;47.354;8.528;2023-03-03T02:07:04;39.88;;;19.73;;
4577;SDS011;2301;47.354;8.528;2023-03-03T02:09:36;32.25;;;18.73;;
4577;SDS011;2301;47.354;8.528;2023-03-03T02:12:12;30.50;;;18.25;;
4577;SDS011;2301;47.354;8.528;2023-03-03T02:14:42;35.55;;;19.52;;
4577;SDS011;2301;47.354;8.528;2023-03-03T02:17:09;32.85;;;19.25;;
4577;SDS011;2301;47.354;8.528;2023-03-03T02:19:38;38.42;;;21.30;;
4577;SDS011;2301;47.354;8.528;2023-03-03T02:22:12;32.15;;;18.92;;
4577;SDS011;2301;47.354;8.528;2023-03-03T02:24:45;26.10;;;17.27;;
4577;SDS011;2301;47.354;8.528;2023-03-03T02:27:17;34.95;;;21.25;;
4577;SDS011;2301;47.354;8.528;2023-03-03T02:29:44;28.73;;;17.60;;
4577;SDS011;2301;47.354;8.528;2023-03-03T02:32:11;29.88;;;18.38;;
4577;SDS011;2301;47.354;8.528;2023-03-03T02:34:48;31.88;;;19.00;;
4577;SDS011;2301;47.354;8.528;2023-03-03T02:37:17;32.10;;;20.10;;
4577;SDS011;2301;47.354;8.528;2023-03-03T02:39:45;39.30;;;22.05;;
4577;SDS011;2301;47.354;8.528;2023-03-03T02:42:13;35.10;;;19.42;;
4577;SDS011;2301;47.354;8.528;2023-03-03T02:44:46;33.30;;;18.63;;
4577;SDS011;2301;47.354;8.528;2023-03-03T02:47:13;28.77;;;17.83;;
4577;SDS011;2301;47.354;8.528;2023-03-03T02:49:40;32.08;;;18.70;;
4577;SDS011;2301;47.354;8.528;2023-03-03T02:52:08;39.58;;;23.05;;
4577;SDS011;2301;47.354;8.528;2023-03-03T02:54:36;36.15;;;19.77;;
4577;SDS011;2301;47.354;8.528;2023-03-03T02:57:04;34.25;;;17.65;;
4577;SDS011;2301;47.354;8.528;2023-03-03T02:59:33;44.20;;;21.75;;
4577;SDS011;2301;47.354;8.528;2023-03-03T03:02:01;30.23;;;16.95;;
4577;SDS011;2301;47.354;8.528;2023-03-03T03:04:28;33.45;;;19.50;;
4577;SDS011;2301;47.354;8.528;2023-03-03T03:06:55;34.63;;;19.63;;
4577;SDS011;2301;47.354;8.528;2023-03-03T03:09:22;36.15;;;18.75;;
4577;SDS011;2301;47.354;8.528;2023-03-03T03:11:50;35.38;;;19.13;;
4577;SDS011;2301;47.354;8.528;2023-03-03T03:14:17;32.00;;;20.33;;
4577;SDS011;2301;47.354;8.528;2023-03-03T03:16:44;39.25;;;18.90;;
4577;SDS011;2301;47.354;8.528;2023-03-03T03:19:12;31.98;;;19.30;;
4577;SDS011;2301;47.354;8.528;2023-03-03T03:21:39;32.28;;;19.30;;
4577;SDS011;2301;47.354;8.528;2023-03-03T03:24:06;39.53;;;21.17;;
4577;SDS011;2301;47.354;8.528;2023-03-03T03:26:33;29.35;;;17.67;;
4577;SDS011;2301;47.354;8.528;2023-03-03T03:29:00;38.00;;;20.63;;
4577;SDS011;2301;47.354;8.528;2023-03-03T03:31:27;37.00;;;21.20;;
4577;SDS011;2301;47.354;8.528;2023-03-03T03:33:55;31.30;;;18.98;;
4577;SDS011;2301;47.354;8.528;2023-03-03T03:36:23;36.28;;;21.63;;
4577;SDS011;2301;47.354;8.528;2023-03-03T03:38:51;32.88;;;20.15;;
4577;SDS011;2301;47.354;8.528;2023-03-03T03:41:18;36.80;;;20.15;;
4577;SDS011;2301;47.354;8.528;2023-03-03T03:43:44;31.08;;;19.63;;
4577;SDS011;2301;47.354;8.528;2023-03-03T03:46:12;33.17;;;18.77;;
4577;SDS011;2301;47.354;8.528;2023-03-03T03:48:39;32.85;;;19.15;;
4577;SDS011;2301;47.354;8.528;2023-03-03T03:51:05;35.95;;;21.25;;
4577;SDS011;2301;47.354;8.528;2023-03-03T03:53:34;40.15;;;22.33;;
4577;SDS011;2301;47.354;8.528;2023-03-03T03:56:01;29.35;;;18.05;;
4577;SDS011;2301;47.354;8.528;2023-03-03T03:58:28;31.25;;;19.98;;
4577;SDS011;2301;47.354;8.528;2023-03-03T04:01:00;31.38;;;18.40;;
4577;SDS011;2301;47.354;8.528;2023-03-03T04:03:28;30.92;;;18.08;;
4577;SDS011;2301;47.354;8.528;2023-03-03T04:05:55;37.80;;;21.80;;
4577;SDS011;2301;47.354;8.528;2023-03-03T04:08:22;35.40;;;18.55;;
4577;SDS011;2301;47.354;8.528;2023-03-03T04:10:50;33.90;;;20.50;;
4577;SDS011;2301;47.354;8.528;2023-03-03T04:13:17;28.30;;;17.40;;
4577;SDS011;2301;47.354;8.528;2023-03-03T04:15:44;33.55;;;19.85;;
4577;SDS011;2301;47.354;8.528;2023-03-03T04:18:12;32.35;;;19.63;;
4577;SDS011;2301;47.354;8.528;2023-03-03T04:20:39;29.48;;;18.15;;
4577;SDS011;2301;47.354;8.528;2023-03-03T04:23:06;31.20;;;19.08;;
4577;SDS011;2301;47.354;8.528;2023-03-03T04:25:33;34.08;;;20.73;;
4577;SDS011;2301;47.354;8.528;2023-03-03T04:28:01;33.05;;;18.23;;
4577;SDS011;2301;47.354;8.528;2023-03-03T04:30:28;34.45;;;20.10;;
4577;SDS011;2301;47.354;8.528;2023-03-03T04:32:55;32.33;;;18.50;;
4577;SDS011;2301;47.354;8.528;2023-03-03T04:35:22;35.00;;;20.75;;
4577;SDS011;2301;47.354;8.528;2023-03-03T04:37:49;35.75;;;21.08;;
4577;SDS011;2301;47.354;8.528;2023-03-03T04:40:16;33.15;;;19.38;;
4577;SDS011;2301;47.354;8.528;2023-03-03T04:42:43;31.42;;;19.48;;
4577;SDS011;2301;47.354;8.528;2023-03-03T04:45:11;35.72;;;20.38;;
4577;SDS011;2301;47.354;8.528;2023-03-03T04:47:38;32.47;;;19.10;;
4577;SDS011;2301;47.354;8.528;2023-03-03T04:50:06;37.92;;;22.33;;
4577;SDS011;2301;47.354;8.528;2023-03-03T04:52:34;42.33;;;23.45;;
4577;SDS011;2301;47.354;8.528;2023-03-03T04:55:01;39.47;;;21.83;;
4577;SDS011;2301;47.354;8.528;2023-03-03T04:57:28;34.28;;;20.80;;
4577;SDS011;2301;47.354;8.528;2023-03-03T04:59:55;35.85;;;21.25;;
4577;SDS011;2301;47.354;8.528;2023-03-03T05:02:24;36.22;;;21.30;;
4577;SDS011;2301;47.354;8.528;2023-03-03T05:04:51;39.05;;;22.55;;
4577;SDS011;2301;47.354;8.528;2023-03-03T05:07:18;36.42;;;20.50;;
4577;SDS011;2301;47.354;8.528;2023-03-03T05:09:45;38.20;;;22.33;;
4577;SDS011;2301;47.354;8.528;2023-03-03T05:12:12;40.70;;;23.45;;
4577;SDS011;2301;47.354;8.528;2023-03-03T05:14:39;36.92;;;22.55;;
4577;SDS011;2301;47.354;8.528;2023-03-03T05:17:06;35.97;;;20.58;;
4577;SDS011;2301;47.354;8.528;2023-03-03T05:19:35;35.45;;;21.83;;
4577;SDS011;2301;47.354;8.528;2023-03-03T05:22:02;41.38;;;22.77;;
4577;SDS011;2301;47.354;8.528;2023-03-03T05:24:29;45.38;;;22.35;;
4577;SDS011;2301;47.354;8.528;2023-03-03T05:26:56;40.83;;;23.13;;
4577;SDS011;2301;47.354;8.528;2023-03-03T05:29:23;38.08;;;22.40;;
4577;SDS011;2301;47.354;8.528;2023-03-03T05:31:51;37.67;;;22.40;;
4577;SDS011;2301;47.354;8.528;2023-03-03T05:34:18;37.28;;;22.35;;
4577;SDS011;2301;47.354;8.528;2023-03-03T05:36:47;39.22;;;23.60;;
4577;SDS011;2301;47.354;8.528;2023-03-03T05:39:14;38.72;;;22.50;;
4577;SDS011;2301;47.354;8.528;2023-03-03T05:41:40;38.30;;;21.02;;
4577;SDS011;2301;47.354;8.528;2023-03-03T05:44:07;43.40;;;23.50;;
4577;SDS011;2301;47.354;8.528;2023-03-03T05:46:35;37.55;;;23.52;;
4577;SDS011;2301;47.354;8.528;2023-03-03T05:49:02;44.08;;;23.27;;
4577;SDS011;2301;47.354;8.528;2023-03-03T05:51:28;37.60;;;23.23;;
4577;SDS011;2301;47.354;8.528;2023-03-03T05:53:57;39.47;;;21.48;;
4577;SDS011;2301;47.354;8.528;2023-03-03T05:56:24;44.97;;;24.33;;
4577;SDS011;2301;47.354;8.528;2023-03-03T05:58:51;41.70;;;24.88;;
4577;SDS011;2301;47.354;8.528;2023-03-03T06:01:18;33.83;;;19.50;;
4577;SDS011;2301;47.354;8.528;2023-03-03T06:03:46;36.67;;;21.17;;
4577;SDS011;2301;47.354;8.528;2023-03-03T06:06:13;38.78;;;23.45;;
4577;SDS011;2301;47.354;8.528;2023-03-03T06:08:41;41.75;;;24.70;;
4577;SDS011;2301;47.354;8.528;2023-03-03T06:11:09;43.35;;;24.15;;
4577;SDS011;2301;47.354;8.528;2023-03-03T06:13:37;39.92;;;22.35;;
4577;SDS011;2301;47.354;8.528;2023-03-03T06:16:04;44.13;;;23.73;;
4577;SDS011;2301;47.354;8.528;2023-03-03T06:18:32;40.15;;;23.48;;
4577;SDS011;2301;47.354;8.528;2023-03-03T06:20:58;38.53;;;23.27;;
4577;SDS011;2301;47.354;8.528;2023-03-03T06:23:25;40.83;;;24.02;;
4577;SDS011;2301;47.354;8.528;2023-03-03T06:25:52;42.55;;;23.42;;
4577;SDS011;2301;47.354;8.528;2023-03-03T06:28:21;38.30;;;23.58;;
4577;SDS011;2301;47.354;8.528;2023-03-03T06:30:51;42.17;;;24.95;;
4577;SDS011;2301;47.354;8.528;2023-03-03T06:33:18;44.38;;;26.65;;
4577;SDS011;2301;47.354;8.528;2023-03-03T06:35:47;52.90;;;28.92;;
4577;SDS011;2301;47.354;8.528;2023-03-03T06:38:15;53.85;;;27.55;;
4577;SDS011;2301;47.354;8.528;2023-03-03T06:40:42;43.90;;;25.38;;
4577;SDS011;2301;47.354;8.528;2023-03-03T06:43:10;44.20;;;24.67;;
4577;SDS011;2301;47.354;8.528;2023-03-03T06:45:38;52.72;;;30.50;;
4577;SDS011;2301;47.354;8.528;2023-03-03T06:48:05;51.35;;;30.35;;
4577;SDS011;2301;47.354;8.528;2023-03-03T06:50:32;58.45;;;30.55;;
4577;SDS011;2301;47.354;8.528;2023-03-03T06:53:01;54.90;;;31.58;;
4577;SDS011;2301;47.354;8.528;2023-03-03T06:55:35;58.00;;;32.28;;
4577;SDS011;2301;47.354;8.528;2023-03-03T06:58:04;53.97;;;29.73;;
4577;SDS011;2301;47.354;8.528;2023-03-03T07:00:34;56.90;;;30.30;;
4577;SDS011;2301;47.354;8.528;2023-03-03T07:03:06;60.38;;;32.63;;
4577;SDS011;2301;47.354;8.528;2023-03-03T07:05:37;54.67;;;29.23;;
4577;SDS011;2301;47.354;8.528;2023-03-03T07:08:05;54.28;;;30.75;;
4577;SDS011;2301;47.354;8.528;2023-03-03T07:10:35;53.17;;;30.70;;
4577;SDS011;2301;47.354;8.528;2023-03-03T07:13:11;52.45;;;28.95;;
4577;SDS011;2301;47.354;8.528;2023-03-03T07:15:42;50.45;;;29.10;;
4577;SDS011;2301;47.354;8.528;2023-03-03T07:18:19;52.80;;;29.85;;
4577;SDS011;2301;47.354;8.528;2023-03-03T07:20:54;64.55;;;36.38;;
4577;SDS011;2301;47.354;8.528;2023-03-03T07:23:22;53.55;;;30.60;;
4577;SDS011;2301;47.354;8.528;2023-03-03T07:25:50;50.13;;;29.13;;
4577;SDS011;2301;47.354;8.528;2023-03-03T07:28:19;52.22;;;29.67;;
4577;SDS011;2301;47.354;8.528;2023-03-03T07:30:49;55.42;;;31.35;;
4577;SDS011;2301;47.354;8.528;2023-03-03T07:33:21;57.15;;;32.25;;
4577;SDS011;2301;47.354;8.528;2023-03-03T07:35:52;57.33;;;30.55;;
4577;SDS011;2301;47.354;8.528;2023-03-03T07:38:25;56.78;;;31.08;;
4577;SDS011;2301;47.354;8.528;2023-03-03T07:40:57;61.45;;;33.13;;
4577;SDS011;2301;47.354;8.528;2023-03-03T07:43:29;53.53;;;29.25;;
4577;SDS011;2301;47.354;8.528;2023-03-03T07:46:01;52.22;;;28.25;;
4577;SDS011;2301;47.354;8.528;2023-03-03T07:48:43;63.38;;;34.25;;
4577;SDS011;2301;47.354;8.528;2023-03-03T07:51:15;65.68;;;35.63;;
4577;SDS011;2301;47.354;8.528;2023-03-03T07:53:47;55.78;;;31.83;;
4577;SDS011;2301;47.354;8.528;2023-03-03T07:56:16;54.92;;;31.63;;
4577;SDS011;2301;47.354;8.528;2023-03-03T07:58:54;56.60;;;32.65;;
4577;SDS011;2301;47.354;8.528;2023-03-03T08:01:26;62.58;;;34.35;;
4577;SDS011;2301;47.354;8.528;2023-03-03T08:04:08;14.88;;;10.38;;
4577;SDS011;2301;47.354;8.528;2023-03-03T08:06:52;25.52;;;15.40;;
4577;SDS011;2301;47.354;8.528;2023-03-03T08:09:40;68.88;;;38.70;;
4577;SDS011;2301;47.354;8.528;2023-03-03T08:14:57;65.97;;;39.65;;
4577;SDS011;2301;47.354;8.528;2023-03-03T08:17:39;72.70;;;40.85;;
4577;SDS011;2301;47.354;8.528;2023-03-03T08:23:14;69.15;;;40.38;;
4577;SDS011;2301;47.354;8.528;2023-03-03T08:25:42;73.78;;;40.10;;
4577;SDS011;2301;47.354;8.528;2023-03-03T08:28:10;71.80;;;39.75;;
4577;SDS011;2301;47.354;8.528;2023-03-03T08:30:38;79.47;;;42.60;;
4577;SDS011;2301;47.354;8.528;2023-03-03T08:33:05;85.43;;;42.83;;
4577;SDS011;2301;47.354;8.528;2023-03-03T08:35:32;77.57;;;41.75;;
4577;SDS011;2301;47.354;8.528;2023-03-03T08:37:59;81.10;;;41.03;;
4577;SDS011;2301;47.354;8.528;2023-03-03T08:40:28;78.05;;;42.97;;
4577;SDS011;2301;47.354;8.528;2023-03-03T08:42:55;14.30;;;8.60;;
4577;SDS011;2301;47.354;8.528;2023-03-03T08:45:22;21.02;;;8.90;;
4577;SDS011;2301;47.354;8.528;2023-03-03T08:47:49;72.88;;;40.85;;
4577;SDS011;2301;47.354;8.528;2023-03-03T08:50:17;76.63;;;41.97;;
4577;SDS011;2301;47.354;8.528;2023-03-03T08:52:44;83.07;;;42.65;;
4577;SDS011;2301;47.354;8.528;2023-03-03T08:55:12;78.25;;;43.85;;
4577;SDS011;2301;47.354;8.528;2023-03-03T08:57:40;74.70;;;40.83;;
4577;SDS011;2301;47.354;8.528;2023-03-03T09:00:08;74.13;;;42.15;;
4577;SDS011;2301;47.354;8.528;2023-03-03T09:02:37;77.13;;;40.10;;
4577;SDS011;2301;47.354;8.528;2023-03-03T09:05:04;77.90;;;41.85;;
4577;SDS011;2301;47.354;8.528;2023-03-03T09:07:31;74.63;;;41.33;;
4577;SDS011;2301;47.354;8.528;2023-03-03T09:09:58;81.53;;;40.70;;
4577;SDS011;2301;47.354;8.528;2023-03-03T09:12:28;74.03;;;40.03;;
4577;SDS011;2301;47.354;8.528;2023-03-03T09:14:58;76.85;;;42.95;;
4577;SDS011;2301;47.354;8.528;2023-03-03T09:17:29;75.97;;;40.70;;
4577;SDS011;2301;47.354;8.528;2023-03-03T09:19:58;84.10;;;43.60;;
4577;SDS011;2301;47.354;8.528;2023-03-03T09:22:36;75.60;;;40.45;;
4577;SDS011;2301;47.354;8.528;2023-03-03T09:25:05;82.90;;;41.65;;
4577;SDS011;2301;47.354;8.528;2023-03-03T09:27:47;75.05;;;40.33;;
4577;SDS011;2301;47.354;8.528;2023-03-03T09:30:26;82.03;;;44.33;;
4577;SDS011;2301;47.354;8.528;2023-03-03T09:33:16;76.00;;;40.08;;
4577;SDS011;2301;47.354;8.528;2023-03-03T09:35:53;75.15;;;40.38;;
4577;SDS011;2301;47.354;8.528;2023-03-03T09:38:29;84.80;;;43.55;;
4577;SDS011;2301;47.354;8.528;2023-03-03T09:41:08;78.03;;;40.53;;
4577;SDS011;2301;47.354;8.528;2023-03-03T09:44:03;80.43;;;41.13;;
4577;SDS011;2301;47.354;8.528;2023-03-03T09:46:47;80.20;;;40.25;;
4577;SDS011;2301;47.354;8.528;2023-03-03T09:49:30;75.13;;;41.38;;
4577;SDS011;2301;47.354;8.528;2023-03-03T09:52:02;73.95;;;39.90;;
4577;SDS011;2301;47.354;8.528;2023-03-03T09:54:47;80.22;;;42.67;;
4577;SDS011;2301;47.354;8.528;2023-03-03T09:57:22;81.32;;;42.45;;
4577;SDS011;2301;47.354;8.528;2023-03-03T10:00:08;74.75;;;40.92;;
4577;SDS011;2301;47.354;8.528;2023-03-03T10:02:49;74.10;;;40.33;;
4577;SDS011;2301;47.354;8.528;2023-03-03T10:05:28;84.72;;;41.70;;
4577;SDS011;2301;47.354;8.528;2023-03-03T10:08:17;81.80;;;41.65;;
4577;SDS011;2301;47.354;8.528;2023-03-03T10:11:06;73.28;;;40.78;;
4577;SDS011;2301;47.354;8.528;2023-03-03T10:13:43;76.63;;;39.72;;
4577;SDS011;2301;47.354;8.528;2023-03-03T10:19:46;80.15;;;41.50;;
4577;SDS011;2301;47.354;8.528;2023-03-03T10:22:23;84.00;;;41.58;;
4577;SDS011;2301;47.354;8.528;2023-03-03T10:24:59;80.78;;;41.42;;
4577;SDS011;2301;47.354;8.528;2023-03-03T10:27:39;79.13;;;42.20;;
4577;SDS011;2301;47.354;8.528;2023-03-03T10:30:16;86.57;;;42.92;;
4577;SDS011;2301;47.354;8.528;2023-03-03T10:32:53;79.65;;;41.42;;
4577;SDS011;2301;47.354;8.528;2023-03-03T10:38:19;76.88;;;39.55;;
4577;SDS011;2301;47.354;8.528;2023-03-03T10:41:04;83.63;;;42.75;;
4577;SDS011;2301;47.354;8.528;2023-03-03T10:43:54;75.38;;;42.20;;
4577;SDS011;2301;47.354;8.528;2023-03-03T10:46:34;88.85;;;44.85;;
4577;SDS011;2301;47.354;8.528;2023-03-03T10:49:17;80.03;;;42.38;;
4577;SDS011;2301;47.354;8.528;2023-03-03T10:51:57;90.72;;;42.88;;
4577;SDS011;2301;47.354;8.528;2023-03-03T10:54:37;87.40;;;43.13;;
4577;SDS011;2301;47.354;8.528;2023-03-03T10:57:19;83.15;;;42.40;;
4577;SDS011;2301;47.354;8.528;2023-03-03T11:02:44;79.18;;;41.40;;
4577;SDS011;2301;47.354;8.528;2023-03-03T11:05:24;82.03;;;42.38;;
4577;SDS011;2301;47.354;8.528;2023-03-03T11:08:00;79.78;;;41.08;;
4577;SDS011;2301;47.354;8.528;2023-03-03T11:10:36;74.85;;;39.83;;
4577;SDS011;2301;47.354;8.528;2023-03-03T11:13:15;75.82;;;40.75;;
4577;SDS011;2301;47.354;8.528;2023-03-03T11:15:57;83.90;;;41.20;;
4577;SDS011;2301;47.354;8.528;2023-03-03T11:18:43;70.65;;;38.88;;
4577;SDS011;2301;47.354;8.528;2023-03-03T11:21:27;75.22;;;39.45;;
4577;SDS011;2301;47.354;8.528;2023-03-03T11:24:04;76.22;;;40.33;;
4577;SDS011;2301;47.354;8.528;2023-03-03T11:26:45;71.30;;;38.83;;
4577;SDS011;2301;47.354;8.528;2023-03-03T11:29:31;76.78;;;37.65;;
4577;SDS011;2301;47.354;8.528;2023-03-03T11:32:12;70.50;;;38.47;;
4577;SDS011;2301;47.354;8.528;2023-03-03T11:34:51;68.38;;;37.15;;
4577;SDS011;2301;47.354;8.528;2023-03-03T11:37:24;70.40;;;36.42;;
4577;SDS011;2301;47.354;8.528;2023-03-03T11:39:59;67.80;;;37.05;;
4577;SDS011;2301;47.354;8.528;2023-03-03T11:42:36;73.57;;;37.88;;
4577;SDS011;2301;47.354;8.528;2023-03-03T11:45:12;70.93;;;38.35;;
4577;SDS011;2301;47.354;8.528;2023-03-03T11:47:44;71.90;;;38.65;;
4577;SDS011;2301;47.354;8.528;2023-03-03T11:50:21;70.32;;;38.30;;
4577;SDS011;2301;47.354;8.528;2023-03-03T11:52:57;68.70;;;36.90;;
4577;SDS011;2301;47.354;8.528;2023-03-03T11:55:41;72.07;;;39.13;;
4577;SDS011;2301;47.354;8.528;2023-03-03T11:58:16;69.53;;;37.90;;
4577;SDS011;2301;47.354;8.528;2023-03-03T12:00:46;72.65;;;38.30;;
4577;SDS011;2301;47.354;8.528;2023-03-03T12:03:19;68.47;;;38.97;;
4577;SDS011;2301;47.354;8.528;2023-03-03T12:05:54;75.00;;;40.60;;
4577;SDS011;2301;47.354;8.528;2023-03-03T12:08:34;74.38;;;40.17;;
4577;SDS011;2301;47.354;8.528;2023-03-03T12:11:18;73.07;;;40.20;;
4577;SDS011;2301;47.354;8.528;2023-03-03T12:13:52;72.95;;;40.53;;
4577;SDS011;2301;47.354;8.528;2023-03-03T12:16:25;78.45;;;39.88;;
4577;SDS011;2301;47.354;8.528;2023-03-03T12:19:14;71.47;;;39.95;;
4577;SDS011;2301;47.354;8.528;2023-03-03T12:22:06;77.53;;;40.45;;
4577;SDS011;2301;47.354;8.528;2023-03-03T12:24:42;76.70;;;40.55;;
4577;SDS011;2301;47.354;8.528;2023-03-03T12:27:24;63.95;;;36.80;;
4577;SDS011;2301;47.354;8.528;2023-03-03T12:30:02;70.05;;;38.60;;
4577;SDS011;2301;47.354;8.528;2023-03-03T12:32:42;72.18;;;37.17;;
4577;SDS011;2301;47.354;8.528;2023-03-03T12:35:24;65.25;;;36.95;;
4577;SDS011;2301;47.354;8.528;2023-03-03T12:37:56;70.10;;;37.83;;
4577;SDS011;2301;47.354;8.528;2023-03-03T12:40:32;71.07;;;38.15;;
4577;SDS011;2301;47.354;8.528;2023-03-03T12:43:15;70.45;;;37.70;;
4577;SDS011;2301;47.354;8.528;2023-03-03T12:45:55;67.60;;;36.80;;
4577;SDS011;2301;47.354;8.528;2023-03-03T12:48:28;73.95;;;37.85;;
4577;SDS011;2301;47.354;8.528;2023-03-03T12:51:03;68.90;;;38.53;;
4577;SDS011;2301;47.354;8.528;2023-03-03T12:53:38;67.82;;;37.42;;
4577;SDS011;2301;47.354;8.528;2023-03-03T12:56:25;72.00;;;37.63;;
4577;SDS011;2301;47.354;8.528;2023-03-03T12:59:02;73.90;;;38.28;;
4577;SDS011;2301;47.354;8.528;2023-03-03T13:01:38;66.20;;;36.10;;
4577;SDS011;2301;47.354;8.528;2023-03-03T13:04:22;66.55;;;37.85;;
4577;SDS011;2301;47.354;8.528;2023-03-03T13:06:58;62.65;;;36.22;;
4577;SDS011;2301;47.354;8.528;2023-03-03T13:09:38;76.50;;;40.90;;
4577;SDS011;2301;47.354;8.528;2023-03-03T13:12:27;71.80;;;38.80;;
4577;SDS011;2301;47.354;8.528;2023-03-03T13:15:04;74.05;;;40.33;;
4577;SDS011;2301;47.354;8.528;2023-03-03T13:17:42;70.70;;;38.90;;
4577;SDS011;2301;47.354;8.528;2023-03-03T13:20:22;70.43;;;37.88;;
4577;SDS011;2301;47.354;8.528;2023-03-03T13:22:57;72.50;;;39.55;;
4577;SDS011;2301;47.354;8.528;2023-03-03T13:28:17;73.72;;;37.53;;
4577;SDS011;2301;47.354;8.528;2023-03-03T13:30:51;68.03;;;38.42;;
4577;SDS011;2301;47.354;8.528;2023-03-03T13:33:24;71.63;;;40.15;;
4577;SDS011;2301;47.354;8.528;2023-03-03T13:35:53;74.97;;;41.35;;
4577;SDS011;2301;47.354;8.528;2023-03-03T13:38:24;68.82;;;39.47;;
4577;SDS011;2301;47.354;8.528;2023-03-03T13:40:56;76.25;;;40.85;;
4577;SDS011;2301;47.354;8.528;2023-03-03T13:43:29;69.75;;;40.08;;
4577;SDS011;2301;47.354;8.528;2023-03-03T13:46:04;71.43;;;39.00;;
4577;SDS011;2301;47.354;8.528;2023-03-03T13:48:44;75.00;;;39.85;;
4577;SDS011;2301;47.354;8.528;2023-03-03T13:51:31;64.60;;;39.53;;
4577;SDS011;2301;47.354;8.528;2023-03-03T13:54:08;71.03;;;39.22;;
4577;SDS011;2301;47.354;8.528;2023-03-03T13:57:10;70.03;;;39.80;;
4577;SDS011;2301;47.354;8.528;2023-03-03T13:59:47;72.90;;;40.88;;
4577;SDS011;2301;47.354;8.528;2023-03-03T14:02:37;69.18;;;40.35;;
4577;SDS011;2301;47.354;8.528;2023-03-03T14:05:13;78.05;;;44.13;;
4577;SDS011;2301;47.354;8.528;2023-03-03T14:07:44;69.38;;;37.88;;
4577;SDS011;2301;47.354;8.528;2023-03-03T14:10:18;65.72;;;38.83;;
4577;SDS011;2301;47.354;8.528;2023-03-03T14:12:50;65.15;;;38.72;;
4577;SDS011;2301;47.354;8.528;2023-03-03T14:15:28;69.05;;;38.40;;
4577;SDS011;2301;47.354;8.528;2023-03-03T14:18:04;73.15;;;40.67;;
4577;SDS011;2301;47.354;8.528;2023-03-03T14:20:44;73.15;;;39.28;;
4577;SDS011;2301;47.354;8.528;2023-03-03T14:23:15;67.40;;;40.13;;
4577;SDS011;2301;47.354;8.528;2023-03-03T14:25:57;69.35;;;38.47;;
4577;SDS011;2301;47.354;8.528;2023-03-03T14:28:37;70.40;;;39.72;;
4577;SDS011;2301;47.354;8.528;2023-03-03T14:31:09;69.88;;;38.97;;
4577;SDS011;2301;47.354;8.528;2023-03-03T14:33:44;77.70;;;41.90;;
4577;SDS011;2301;47.354;8.528;2023-03-03T14:36:25;65.03;;;37.28;;
4577;SDS011;2301;47.354;8.528;2023-03-03T14:38:54;69.25;;;38.05;;
4577;SDS011;2301;47.354;8.528;2023-03-03T14:41:21;69.63;;;39.38;;
4577;SDS011;2301;47.354;8.528;2023-03-03T14:44:06;62.95;;;36.83;;
4577;SDS011;2301;47.354;8.528;2023-03-03T14:46:59;72.60;;;40.22;;
4577;SDS011;2301;47.354;8.528;2023-03-03T14:49:33;67.25;;;38.15;;
4577;SDS011;2301;47.354;8.528;2023-03-03T14:52:02;64.53;;;37.92;;
4577;SDS011;2301;47.354;8.528;2023-03-03T14:54:37;59.17;;;36.08;;
4577;SDS011;2301;47.354;8.528;2023-03-03T14:57:08;74.32;;;42.20;;
4577;SDS011;2301;47.354;8.528;2023-03-03T14:59:40;63.25;;;37.60;;
4577;SDS011;2301;47.354;8.528;2023-03-03T15:02:31;68.47;;;36.22;;
4577;SDS011;2301;47.354;8.528;2023-03-03T15:05:12;71.55;;;38.25;;
4577;SDS011;2301;47.354;8.528;2023-03-03T15:07:48;71.72;;;37.28;;
4577;SDS011;2301;47.354;8.528;2023-03-03T15:10:25;68.72;;;38.40;;
4577;SDS011;2301;47.354;8.528;2023-03-03T15:12:57;64.10;;;37.95;;
4577;SDS011;2301;47.354;8.528;2023-03-03T15:15:33;68.15;;;38.78;;
4577;SDS011;2301;47.354;8.528;2023-03-03T15:18:00;78.43;;;39.88;;
4577;SDS011;2301;47.354;8.528;2023-03-03T15:23:16;73.18;;;39.03;;
4577;SDS011;2301;47.354;8.528;2023-03-03T15:25:56;73.53;;;38.55;;
4577;SDS011;2301;47.354;8.528;2023-03-03T15:28:36;68.93;;;39.13;;
4577;SDS011;2301;47.354;8.528;2023-03-03T15:31:14;71.93;;;39.05;;
4577;SDS011;2301;47.354;8.528;2023-03-03T15:33:57;75.75;;;39.97;;
4577;SDS011;2301;47.354;8.528;2023-03-03T15:36:41;72.03;;;39.33;;
4577;SDS011;2301;47.354;8.528;2023-03-03T15:39:15;71.20;;;39.13;;
4577;SDS011;2301;47.354;8.528;2023-03-03T15:41:47;69.70;;;39.42;;
4577;SDS011;2301;47.354;8.528;2023-03-03T15:44:25;67.10;;;38.45;;